sensor_id;sensor_type;location;lat;lon;timestamp;P1;durP1;ratioP1;P2;durP2;ratioP2
22268;SDS011;11303;50.772;19.670;2022-08-27T00:00:04;18.23;;;13.70;;
22268;SDS011;11303;50.772;19.670;2022-08-27T00:02:09;20.10;;;14.60;;
22268;SDS011;11303;50.772;19.670;2022-08-27T00:04:11;18.33;;;15.18;;
22268;SDS011;11303;50.772;19.670;2022-08-27T00:06:13;24.73;;;15.65;;
22268;SDS011;11303;50.772;19.670;2022-08-27T00:08:17;23.63;;;15.13;;
22268;SDS011;11303;50.772;19.670;2022-08-27T00:10:20;17.58;;;14.13;;
22268;SDS011;11303;50.772;19.670;2022-08-27T00:12:23;22.15;;;16.45;;
22268;SDS011;11303;50.772;19.670;2022-08-27T00:14:26;19.63;;;14.98;;
22268;SDS011;11303;50.772;19.670;2022-08-27T00:16:28;19.83;;;15.25;;
22268;SDS011;11303;50.772;19.670;2022-08-27T00:18:32;22.02;;;15.65;;
22268;SDS011;11303;50.772;19.670;2022-08-27T00:20:34;25.33;;;15.65;;
22268;SDS011;11303;50.772;19.670;2022-08-27T00:22:36;19.58;;;14.70;;
22268;SDS011;11303;50.772;19.670;2022-08-27T00:24:38;21.92;;;15.73;;
22268;SDS011;11303;50.772;19.670;2022-08-27T00:26:49;23.25;;;15.57;;
22268;SDS011;11303;50.772;19.670;2022-08-27T00:28:53;21.15;;;14.68;;
22268;SDS011;11303;50.772;19.670;2022-08-27T00:30:55;18.55;;;15.07;;
22268;SDS011;11303;50.772;19.670;2022-08-27T00:32:56;19.27;;;15.65;;
22268;SDS011;11303;50.772;19.670;2022-08-27T00:34:58;23.20;;;14.95;;
22268;SDS011;11303;50.772;19.670;2022-08-27T00:36:59;24.02;;;15.52;;
22268;SDS011;11303;50.772;19.670;2022-08-27T00:39:02;22.67;;;15.38;;
22268;SDS011;11303;50.772;19.670;2022-08-27T00:41:04;20.73;;;14.20;;
22268;SDS011;11303;50.772;19.670;2022-08-27T00:43:07;18.92;;;14.10;;
22268;SDS011;11303;50.772;19.670;2022-08-27T00:45:09;17.02;;;13.80;;
22268;SDS011;11303;50.772;19.670;2022-08-27T00:47:14;24.17;;;15.23;;
22268;SDS011;11303;50.772;19.670;2022-08-27T00:51:56;18.40;;;13.45;;
22268;SDS011;11303;50.772;19.670;2022-08-27T00:54:05;18.08;;;13.43;;
22268;SDS011;11303;50.772;19.670;2022-08-27T00:56:11;16.98;;;13.05;;
22268;SDS011;11303;50.772;19.670;2022-08-27T01:00:31;18.48;;;14.15;;
22268;SDS011;11303;50.772;19.670;2022-08-27T01:02:32;19.83;;;14.40;;
22268;SDS011;11303;50.772;19.670;2022-08-27T01:04:35;22.63;;;14.35;;
22268;SDS011;11303;50.772;19.670;2022-08-27T01:06:37;22.42;;;14.65;;
22268;SDS011;11303;50.772;19.670;2022-08-27T01:08:41;19.05;;;15.15;;
22268;SDS011;11303;50.772;19.670;2022-08-27T01:10:45;23.27;;;14.85;;
22268;SDS011;11303;50.772;19.670;2022-08-27T01:12:47;20.92;;;14.80;;
22268;SDS011;11303;50.772;19.670;2022-08-27T01:14:54;22.80;;;16.17;;
22268;SDS011;11303;50.772;19.670;2022-08-27T01:16:56;23.95;;;15.50;;
22268;SDS011;11303;50.772;19.670;2022-08-27T01:18:59;22.13;;;15.93;;
22268;SDS011;11303;50.772;19.670;2022-08-27T01:21:07;21.88;;;16.38;;
22268;SDS011;11303;50.772;19.670;2022-08-27T01:23:16;20.10;;;16.73;;
22268;SDS011;11303;50.772;19.670;2022-08-27T01:25:21;26.08;;;16.70;;
22268;SDS011;11303;50.772;19.670;2022-08-27T01:27:25;22.33;;;15.75;;
22268;SDS011;11303;50.772;19.670;2022-08-27T01:29:28;22.02;;;16.20;;
22268;SDS011;11303;50.772;19.670;2022-08-27T01:31:30;19.38;;;15.63;;
22268;SDS011;11303;50.772;19.670;2022-08-27T01:33:32;20.85;;;15.07;;
22268;SDS011;11303;50.772;19.670;2022-08-27T01:35:33;19.77;;;14.70;;
22268;SDS011;11303;50.772;19.670;2022-08-27T01:37:40;21.38;;;15.57;;
22268;SDS011;11303;50.772;19.670;2022-08-27T01:39:44;20.30;;;14.55;;
22268;SDS011;11303;50.772;19.670;2022-08-27T01:41:48;20.17;;;14.80;;
22268;SDS011;11303;50.772;19.670;2022-08-27T01:43:52;23.45;;;14.52;;
22268;SDS011;11303;50.772;19.670;2022-08-27T01:45:54;21.75;;;14.38;;
22268;SDS011;11303;50.772;19.670;2022-08-27T01:47:56;18.48;;;14.38;;
22268;SDS011;11303;50.772;19.670;2022-08-27T01:49:58;20.02;;;13.80;;
22268;SDS011;11303;50.772;19.670;2022-08-27T01:52:00;17.50;;;13.35;;
22268;SDS011;11303;50.772;19.670;2022-08-27T01:54:02;17.38;;;13.70;;
22268;SDS011;11303;50.772;19.670;2022-08-27T01:56:04;17.63;;;13.30;;
22268;SDS011;11303;50.772;19.670;2022-08-27T01:58:05;13.50;;;11.90;;
22268;SDS011;11303;50.772;19.670;2022-08-27T02:00:09;15.43;;;11.70;;
22268;SDS011;11303;50.772;19.670;2022-08-27T02:02:14;15.02;;;12.60;;
22268;SDS011;11303;50.772;19.670;2022-08-27T02:04:16;18.55;;;12.70;;
22268;SDS011;11303;50.772;19.670;2022-08-27T02:06:18;19.30;;;12.68;;
22268;SDS011;11303;50.772;19.670;2022-08-27T02:08:20;18.58;;;12.77;;
22268;SDS011;11303;50.772;19.670;2022-08-27T02:10:23;18.27;;;12.60;;
22268;SDS011;11303;50.772;19.670;2022-08-27T02:12:27;16.73;;;12.52;;
22268;SDS011;11303;50.772;19.670;2022-08-27T02:14:28;16.85;;;12.50;;
22268;SDS011;11303;50.772;19.670;2022-08-27T02:16:30;15.05;;;12.25;;
22268;SDS011;11303;50.772;19.670;2022-08-27T02:18:33;19.02;;;12.65;;
22268;SDS011;11303;50.772;19.670;2022-08-27T02:20:37;15.63;;;11.80;;
22268;SDS011;11303;50.772;19.670;2022-08-27T02:22:39;14.05;;;12.55;;
22268;SDS011;11303;50.772;19.670;2022-08-27T02:24:41;18.10;;;12.10;;
22268;SDS011;11303;50.772;19.670;2022-08-27T02:26:43;16.27;;;11.70;;
22268;SDS011;11303;50.772;19.670;2022-08-27T02:28:44;14.70;;;11.27;;
22268;SDS011;11303;50.772;19.670;2022-08-27T02:30:46;16.17;;;10.88;;
22268;SDS011;11303;50.772;19.670;2022-08-27T02:32:48;14.45;;;11.45;;
22268;SDS011;11303;50.772;19.670;2022-08-27T02:34:50;17.92;;;12.60;;
22268;SDS011;11303;50.772;19.670;2022-08-27T02:36:51;17.85;;;13.90;;
22268;SDS011;11303;50.772;19.670;2022-08-27T02:38:54;21.48;;;14.63;;
22268;SDS011;11303;50.772;19.670;2022-08-27T02:40:56;22.13;;;14.95;;
22268;SDS011;11303;50.772;19.670;2022-08-27T02:42:58;19.17;;;15.38;;
22268;SDS011;11303;50.772;19.670;2022-08-27T02:44:59;22.52;;;15.98;;
22268;SDS011;11303;50.772;19.670;2022-08-27T02:47:01;20.92;;;15.93;;
22268;SDS011;11303;50.772;19.670;2022-08-27T02:49:03;20.45;;;15.20;;
22268;SDS011;11303;50.772;19.670;2022-08-27T02:51:05;20.02;;;15.23;;
22268;SDS011;11303;50.772;19.670;2022-08-27T02:53:07;18.40;;;15.25;;
22268;SDS011;11303;50.772;19.670;2022-08-27T02:55:09;18.55;;;14.98;;
22268;SDS011;11303;50.772;19.670;2022-08-27T02:57:11;17.77;;;14.70;;
22268;SDS011;11303;50.772;19.670;2022-08-27T02:59:13;17.65;;;13.80;;
22268;SDS011;11303;50.772;19.670;2022-08-27T03:01:15;18.17;;;13.60;;
22268;SDS011;11303;50.772;19.670;2022-08-27T03:03:16;18.35;;;14.15;;
22268;SDS011;11303;50.772;19.670;2022-08-27T03:05:19;18.67;;;12.57;;
22268;SDS011;11303;50.772;19.670;2022-08-27T03:07:21;17.13;;;11.73;;
22268;SDS011;11303;50.772;19.670;2022-08-27T03:09:24;14.90;;;11.30;;
22268;SDS011;11303;50.772;19.670;2022-08-27T03:11:26;15.30;;;12.43;;
22268;SDS011;11303;50.772;19.670;2022-08-27T03:13:27;16.70;;;13.50;;
22268;SDS011;11303;50.772;19.670;2022-08-27T03:15:29;16.45;;;13.95;;
22268;SDS011;11303;50.772;19.670;2022-08-27T03:17:31;18.17;;;13.38;;
22268;SDS011;11303;50.772;19.670;2022-08-27T03:19:51;19.42;;;12.90;;
22268;SDS011;11303;50.772;19.670;2022-08-27T03:21:53;15.63;;;12.13;;
22268;SDS011;11303;50.772;19.670;2022-08-27T03:23:55;14.43;;;11.77;;
22268;SDS011;11303;50.772;19.670;2022-08-27T03:25:58;20.95;;;11.95;;
22268;SDS011;11303;50.772;19.670;2022-08-27T03:28:01;16.85;;;11.77;;
22268;SDS011;11303;50.772;19.670;2022-08-27T03:30:04;18.40;;;12.65;;
22268;SDS011;11303;50.772;19.670;2022-08-27T03:32:11;18.13;;;13.07;;
22268;SDS011;11303;50.772;19.670;2022-08-27T03:34:12;26.95;;;19.15;;
22268;SDS011;11303;50.772;19.670;2022-08-27T03:36:20;66.20;;;59.05;;
22268;SDS011;11303;50.772;19.670;2022-08-27T03:38:21;62.10;;;55.63;;
22268;SDS011;11303;50.772;19.670;2022-08-27T03:40:24;60.90;;;54.28;;
22268;SDS011;11303;50.772;19.670;2022-08-27T03:42:26;37.90;;;34.00;;
22268;SDS011;11303;50.772;19.670;2022-08-27T03:44:27;20.95;;;18.70;;
22268;SDS011;11303;50.772;19.670;2022-08-27T03:46:29;27.52;;;22.25;;
22268;SDS011;11303;50.772;19.670;2022-08-27T03:48:31;22.02;;;16.10;;
22268;SDS011;11303;50.772;19.670;2022-08-27T03:50:33;19.55;;;13.80;;
22268;SDS011;11303;50.772;19.670;2022-08-27T03:52:35;18.83;;;15.38;;
22268;SDS011;11303;50.772;19.670;2022-08-27T03:54:37;18.98;;;14.57;;
22268;SDS011;11303;50.772;19.670;2022-08-27T03:56:39;19.60;;;15.43;;
22268;SDS011;11303;50.772;19.670;2022-08-27T03:58:41;20.70;;;14.65;;
22268;SDS011;11303;50.772;19.670;2022-08-27T04:00:43;17.45;;;13.93;;
22268;SDS011;11303;50.772;19.670;2022-08-27T04:02:45;19.45;;;13.63;;
22268;SDS011;11303;50.772;19.670;2022-08-27T04:04:47;19.45;;;13.32;;
22268;SDS011;11303;50.772;19.670;2022-08-27T04:06:49;21.23;;;13.07;;
22268;SDS011;11303;50.772;19.670;2022-08-27T04:08:50;18.88;;;13.05;;
22268;SDS011;11303;50.772;19.670;2022-08-27T04:10:52;13.73;;;11.57;;
22268;SDS011;11303;50.772;19.670;2022-08-27T04:12:55;16.50;;;11.35;;
22268;SDS011;11303;50.772;19.670;2022-08-27T04:14:56;16.13;;;11.13;;
22268;SDS011;11303;50.772;19.670;2022-08-27T04:16:58;33.90;;;24.17;;
22268;SDS011;11303;50.772;19.670;2022-08-27T04:19:00;19.88;;;14.57;;
22268;SDS011;11303;50.772;19.670;2022-08-27T04:21:05;16.20;;;11.45;;
22268;SDS011;11303;50.772;19.670;2022-08-27T04:23:08;18.83;;;10.23;;
22268;SDS011;11303;50.772;19.670;2022-08-27T04:25:10;19.98;;;12.40;;
22268;SDS011;11303;50.772;19.670;2022-08-27T04:27:12;18.80;;;13.13;;
22268;SDS011;11303;50.772;19.670;2022-08-27T04:29:15;24.13;;;15.65;;
22268;SDS011;11303;50.772;19.670;2022-08-27T04:31:17;22.08;;;15.30;;
22268;SDS011;11303;50.772;19.670;2022-08-27T04:33:18;18.13;;;13.90;;
22268;SDS011;11303;50.772;19.670;2022-08-27T04:35:20;15.88;;;12.68;;
22268;SDS011;11303;50.772;19.670;2022-08-27T04:37:22;17.50;;;11.07;;
22268;SDS011;11303;50.772;19.670;2022-08-27T04:39:25;20.15;;;10.25;;
22268;SDS011;11303;50.772;19.670;2022-08-27T04:41:27;18.77;;;10.45;;
22268;SDS011;11303;50.772;19.670;2022-08-27T04:43:33;13.88;;;9.23;;
22268;SDS011;11303;50.772;19.670;2022-08-27T04:45:41;13.32;;;9.20;;
22268;SDS011;11303;50.772;19.670;2022-08-27T04:47:44;17.40;;;10.30;;
22268;SDS011;11303;50.772;19.670;2022-08-27T04:49:46;22.08;;;8.85;;
22268;SDS011;11303;50.772;19.670;2022-08-27T04:51:48;12.45;;;8.35;;
22268;SDS011;11303;50.772;19.670;2022-08-27T04:53:49;12.52;;;8.32;;
22268;SDS011;11303;50.772;19.670;2022-08-27T04:55:52;15.20;;;8.10;;
22268;SDS011;11303;50.772;19.670;2022-08-27T04:57:56;14.75;;;8.30;;
22268;SDS011;11303;50.772;19.670;2022-08-27T04:59:57;9.40;;;7.22;;
22268;SDS011;11303;50.772;19.670;2022-08-27T05:01:59;9.27;;;7.55;;
22268;SDS011;11303;50.772;19.670;2022-08-27T05:04:05;9.02;;;7.57;;
22268;SDS011;11303;50.772;19.670;2022-08-27T05:06:07;15.05;;;8.73;;
22268;SDS011;11303;50.772;19.670;2022-08-27T05:08:09;12.02;;;8.23;;
22268;SDS011;11303;50.772;19.670;2022-08-27T05:10:14;14.07;;;9.13;;
22268;SDS011;11303;50.772;19.670;2022-08-27T05:12:16;14.07;;;7.75;;
22268;SDS011;11303;50.772;19.670;2022-08-27T05:14:18;12.60;;;8.27;;
22268;SDS011;11303;50.772;19.670;2022-08-27T05:16:21;19.52;;;8.85;;
22268;SDS011;11303;50.772;19.670;2022-08-27T05:18:23;16.08;;;8.98;;
22268;SDS011;11303;50.772;19.670;2022-08-27T05:20:28;14.73;;;8.32;;
22268;SDS011;11303;50.772;19.670;2022-08-27T05:22:31;12.57;;;9.70;;
22268;SDS011;11303;50.772;19.670;2022-08-27T05:24:32;22.83;;;9.27;;
22268;SDS011;11303;50.772;19.670;2022-08-27T05:26:34;13.63;;;9.10;;
22268;SDS011;11303;50.772;19.670;2022-08-27T05:28:36;15.23;;;9.63;;
22268;SDS011;11303;50.772;19.670;2022-08-27T05:30:39;15.55;;;9.63;;
22268;SDS011;11303;50.772;19.670;2022-08-27T05:32:42;17.92;;;10.45;;
22268;SDS011;11303;50.772;19.670;2022-08-27T05:34:44;18.42;;;11.65;;
22268;SDS011;11303;50.772;19.670;2022-08-27T05:36:46;14.95;;;11.23;;
22268;SDS011;11303;50.772;19.670;2022-08-27T05:38:49;14.90;;;10.63;;
22268;SDS011;11303;50.772;19.670;2022-08-27T05:41:00;18.10;;;11.45;;
22268;SDS011;11303;50.772;19.670;2022-08-27T05:43:11;19.23;;;11.02;;
22268;SDS011;11303;50.772;19.670;2022-08-27T05:45:13;19.50;;;11.52;;
22268;SDS011;11303;50.772;19.670;2022-08-27T05:47:17;17.50;;;12.02;;
22268;SDS011;11303;50.772;19.670;2022-08-27T05:49:18;16.50;;;11.35;;
22268;SDS011;11303;50.772;19.670;2022-08-27T05:51:21;19.65;;;11.20;;
22268;SDS011;11303;50.772;19.670;2022-08-27T05:53:26;15.15;;;10.48;;
22268;SDS011;11303;50.772;19.670;2022-08-27T05:55:28;21.48;;;12.27;;
22268;SDS011;11303;50.772;19.670;2022-08-27T05:57:29;15.30;;;11.15;;
22268;SDS011;11303;50.772;19.670;2022-08-27T05:59:31;21.02;;;13.48;;
22268;SDS011;11303;50.772;19.670;2022-08-27T06:01:52;18.98;;;12.68;;
22268;SDS011;11303;50.772;19.670;2022-08-27T06:03:54;18.13;;;11.93;;
22268;SDS011;11303;50.772;19.670;2022-08-27T06:06:00;16.50;;;10.85;;
22268;SDS011;11303;50.772;19.670;2022-08-27T06:08:09;14.77;;;10.60;;
22268;SDS011;11303;50.772;19.670;2022-08-27T06:10:11;16.05;;;11.35;;
22268;SDS011;11303;50.772;19.670;2022-08-27T06:12:13;18.15;;;9.93;;
22268;SDS011;11303;50.772;19.670;2022-08-27T06:14:14;22.33;;;11.23;;
22268;SDS011;11303;50.772;19.670;2022-08-27T06:16:17;15.98;;;10.80;;
22268;SDS011;11303;50.772;19.670;2022-08-27T06:18:19;11.45;;;10.05;;
22268;SDS011;11303;50.772;19.670;2022-08-27T06:20:21;14.52;;;10.30;;
22268;SDS011;11303;50.772;19.670;2022-08-27T06:22:23;18.35;;;9.73;;
22268;SDS011;11303;50.772;19.670;2022-08-27T06:24:25;20.13;;;10.02;;
22268;SDS011;11303;50.772;19.670;2022-08-27T06:26:27;19.65;;;10.65;;
22268;SDS011;11303;50.772;19.670;2022-08-27T06:28:28;15.23;;;10.18;;
22268;SDS011;11303;50.772;19.670;2022-08-27T06:30:31;18.73;;;9.95;;
22268;SDS011;11303;50.772;19.670;2022-08-27T06:32:33;18.50;;;12.38;;
22268;SDS011;11303;50.772;19.670;2022-08-27T06:34:35;20.13;;;11.07;;
22268;SDS011;11303;50.772;19.670;2022-08-27T06:36:39;14.20;;;9.50;;
22268;SDS011;11303;50.772;19.670;2022-08-27T06:38:42;11.85;;;9.85;;
22268;SDS011;11303;50.772;19.670;2022-08-27T06:40:44;13.93;;;10.18;;
22268;SDS011;11303;50.772;19.670;2022-08-27T06:42:46;13.40;;;9.13;;
22268;SDS011;11303;50.772;19.670;2022-08-27T06:44:48;14.85;;;9.82;;
22268;SDS011;11303;50.772;19.670;2022-08-27T06:46:50;15.50;;;10.23;;
22268;SDS011;11303;50.772;19.670;2022-08-27T06:48:56;13.32;;;9.60;;
22268;SDS011;11303;50.772;19.670;2022-08-27T06:50:59;10.48;;;9.10;;
22268;SDS011;11303;50.772;19.670;2022-08-27T06:53:01;13.95;;;9.68;;
22268;SDS011;11303;50.772;19.670;2022-08-27T06:55:02;13.90;;;9.60;;
22268;SDS011;11303;50.772;19.670;2022-08-27T06:57:08;13.55;;;9.20;;
22268;SDS011;11303;50.772;19.670;2022-08-27T06:59:11;15.68;;;10.50;;
22268;SDS011;11303;50.772;19.670;2022-08-27T07:01:17;19.58;;;9.20;;
22268;SDS011;11303;50.772;19.670;2022-08-27T07:03:19;11.30;;;9.63;;
22268;SDS011;11303;50.772;19.670;2022-08-27T07:05:21;17.83;;;9.65;;
22268;SDS011;11303;50.772;19.670;2022-08-27T07:07:23;15.85;;;9.25;;
22268;SDS011;11303;50.772;19.670;2022-08-27T07:09:35;18.02;;;9.27;;
22268;SDS011;11303;50.772;19.670;2022-08-27T07:11:37;13.68;;;8.77;;
22268;SDS011;11303;50.772;19.670;2022-08-27T07:13:39;13.85;;;9.15;;
22268;SDS011;11303;50.772;19.670;2022-08-27T07:15:41;14.65;;;9.48;;
22268;SDS011;11303;50.772;19.670;2022-08-27T07:17:43;13.32;;;8.45;;
22268;SDS011;11303;50.772;19.670;2022-08-27T07:19:45;11.07;;;9.52;;
22268;SDS011;11303;50.772;19.670;2022-08-27T07:21:51;15.73;;;9.60;;
22268;SDS011;11303;50.772;19.670;2022-08-27T07:23:53;16.95;;;9.18;;
22268;SDS011;11303;50.772;19.670;2022-08-27T07:25:56;14.52;;;8.70;;
22268;SDS011;11303;50.772;19.670;2022-08-27T07:27:57;18.45;;;9.05;;
22268;SDS011;11303;50.772;19.670;2022-08-27T07:30:00;11.82;;;9.27;;
22268;SDS011;11303;50.772;19.670;2022-08-27T07:32:02;13.88;;;9.45;;
22268;SDS011;11303;50.772;19.670;2022-08-27T07:34:04;12.77;;;8.55;;
22268;SDS011;11303;50.772;19.670;2022-08-27T07:36:06;14.35;;;8.50;;
22268;SDS011;11303;50.772;19.670;2022-08-27T07:38:11;13.77;;;8.50;;
22268;SDS011;11303;50.772;19.670;2022-08-27T07:40:13;16.95;;;8.77;;
22268;SDS011;11303;50.772;19.670;2022-08-27T07:42:15;11.30;;;8.45;;
22268;SDS011;11303;50.772;19.670;2022-08-27T07:44:35;16.98;;;8.77;;
22268;SDS011;11303;50.772;19.670;2022-08-27T07:46:38;11.07;;;8.32;;
22268;SDS011;11303;50.772;19.670;2022-08-27T07:48:42;19.00;;;8.60;;
22268;SDS011;11303;50.772;19.670;2022-08-27T07:50:44;14.68;;;8.82;;
22268;SDS011;11303;50.772;19.670;2022-08-27T07:52:45;15.18;;;8.60;;
22268;SDS011;11303;50.772;19.670;2022-08-27T07:54:47;10.15;;;6.95;;
22268;SDS011;11303;50.772;19.670;2022-08-27T07:56:49;14.93;;;7.68;;
22268;SDS011;11303;50.772;19.670;2022-08-27T07:58:56;16.58;;;7.93;;
22268;SDS011;11303;50.772;19.670;2022-08-27T08:00:57;11.95;;;8.02;;
22268;SDS011;11303;50.772;19.670;2022-08-27T08:02:59;19.17;;;8.68;;
22268;SDS011;11303;50.772;19.670;2022-08-27T08:05:02;14.32;;;7.95;;
22268;SDS011;11303;50.772;19.670;2022-08-27T08:07:04;11.35;;;8.27;;
22268;SDS011;11303;50.772;19.670;2022-08-27T08:09:06;13.68;;;7.90;;
22268;SDS011;11303;50.772;19.670;2022-08-27T08:11:14;14.27;;;7.53;;
22268;SDS011;11303;50.772;19.670;2022-08-27T08:13:17;16.00;;;8.38;;
22268;SDS011;11303;50.772;19.670;2022-08-27T08:15:19;15.75;;;9.00;;
22268;SDS011;11303;50.772;19.670;2022-08-27T08:17:21;11.82;;;7.68;;
22268;SDS011;11303;50.772;19.670;2022-08-27T08:19:23;11.65;;;6.88;;
22268;SDS011;11303;50.772;19.670;2022-08-27T08:21:25;10.13;;;6.25;;
22268;SDS011;11303;50.772;19.670;2022-08-27T08:23:27;9.50;;;6.60;;
22268;SDS011;11303;50.772;19.670;2022-08-27T08:25:28;10.50;;;7.00;;
22268;SDS011;11303;50.772;19.670;2022-08-27T08:27:39;9.23;;;6.70;;
22268;SDS011;11303;50.772;19.670;2022-08-27T08:29:41;11.80;;;6.80;;
22268;SDS011;11303;50.772;19.670;2022-08-27T08:31:43;12.57;;;6.60;;
22268;SDS011;11303;50.772;19.670;2022-08-27T08:33:50;11.60;;;6.63;;
22268;SDS011;11303;50.772;19.670;2022-08-27T08:35:52;13.25;;;6.05;;
22268;SDS011;11303;50.772;19.670;2022-08-27T08:37:54;8.52;;;6.05;;
22268;SDS011;11303;50.772;19.670;2022-08-27T08:39:56;8.45;;;5.72;;
22268;SDS011;11303;50.772;19.670;2022-08-27T08:41:59;10.32;;;7.55;;
22268;SDS011;11303;50.772;19.670;2022-08-27T08:44:07;10.98;;;5.70;;
22268;SDS011;11303;50.772;19.670;2022-08-27T08:46:15;10.77;;;5.90;;
22268;SDS011;11303;50.772;19.670;2022-08-27T08:48:22;12.70;;;6.25;;
22268;SDS011;11303;50.772;19.670;2022-08-27T08:50:27;11.65;;;6.38;;
22268;SDS011;11303;50.772;19.670;2022-08-27T08:52:55;12.75;;;6.40;;
22268;SDS011;11303;50.772;19.670;2022-08-27T08:55:25;8.60;;;5.40;;
22268;SDS011;11303;50.772;19.670;2022-08-27T08:57:30;8.15;;;6.03;;
22268;SDS011;11303;50.772;19.670;2022-08-27T08:59:36;7.05;;;5.30;;
22268;SDS011;11303;50.772;19.670;2022-08-27T09:01:39;10.45;;;5.68;;
22268;SDS011;11303;50.772;19.670;2022-08-27T09:03:41;13.32;;;5.75;;
22268;SDS011;11303;50.772;19.670;2022-08-27T09:05:53;10.68;;;5.18;;
22268;SDS011;11303;50.772;19.670;2022-08-27T09:08:10;18.45;;;7.25;;
22268;SDS011;11303;50.772;19.670;2022-08-27T09:13:01;14.13;;;5.70;;
22268;SDS011;11303;50.772;19.670;2022-08-27T09:17:16;8.52;;;5.10;;
22268;SDS011;11303;50.772;19.670;2022-08-27T09:19:18;15.77;;;6.75;;
22268;SDS011;11303;50.772;19.670;2022-08-27T09:26:00;11.10;;;5.32;;
22268;SDS011;11303;50.772;19.670;2022-08-27T09:28:45;11.43;;;5.40;;
22268;SDS011;11303;50.772;19.670;2022-08-27T09:30:47;9.35;;;4.82;;
22268;SDS011;11303;50.772;19.670;2022-08-27T09:32:56;8.95;;;5.22;;
22268;SDS011;11303;50.772;19.670;2022-08-27T09:35:00;9.13;;;5.07;;
22268;SDS011;11303;50.772;19.670;2022-08-27T09:37:24;14.27;;;5.60;;
22268;SDS011;11303;50.772;19.670;2022-08-27T09:42:01;9.25;;;5.43;;
22268;SDS011;11303;50.772;19.670;2022-08-27T09:44:11;11.52;;;5.35;;
22268;SDS011;11303;50.772;19.670;2022-08-27T09:46:19;8.23;;;5.20;;
22268;SDS011;11303;50.772;19.670;2022-08-27T09:48:26;7.50;;;5.00;;
22268;SDS011;11303;50.772;19.670;2022-08-27T09:50:31;10.38;;;5.28;;
22268;SDS011;11303;50.772;19.670;2022-08-27T09:52:46;9.40;;;5.40;;
22268;SDS011;11303;50.772;19.670;2022-08-27T09:55:00;14.10;;;5.18;;
22268;SDS011;11303;50.772;19.670;2022-08-27T09:57:04;11.55;;;5.18;;
22268;SDS011;11303;50.772;19.670;2022-08-27T09:59:08;12.65;;;5.57;;
22268;SDS011;11303;50.772;19.670;2022-08-27T10:01:21;11.57;;;5.43;;
22268;SDS011;11303;50.772;19.670;2022-08-27T10:03:24;12.90;;;5.18;;
22268;SDS011;11303;50.772;19.670;2022-08-27T10:05:48;15.20;;;5.53;;
22268;SDS011;11303;50.772;19.670;2022-08-27T10:07:52;12.82;;;5.32;;
22268;SDS011;11303;50.772;19.670;2022-08-27T10:12:58;10.23;;;4.85;;
22268;SDS011;11303;50.772;19.670;2022-08-27T10:15:11;8.40;;;4.85;;
22268;SDS011;11303;50.772;19.670;2022-08-27T10:22:05;13.07;;;5.20;;
22268;SDS011;11303;50.772;19.670;2022-08-27T10:24:43;23.90;;;5.90;;
22268;SDS011;11303;50.772;19.670;2022-08-27T10:29:35;17.27;;;5.45;;
22268;SDS011;11303;50.772;19.670;2022-08-27T10:34:29;10.98;;;5.30;;
22268;SDS011;11303;50.772;19.670;2022-08-27T10:38:44;10.20;;;4.90;;
22268;SDS011;11303;50.772;19.670;2022-08-27T10:40:50;16.55;;;5.25;;
22268;SDS011;11303;50.772;19.670;2022-08-27T10:45:24;12.45;;;6.13;;
22268;SDS011;11303;50.772;19.670;2022-08-27T10:49:51;15.07;;;6.45;;
22268;SDS011;11303;50.772;19.670;2022-08-27T10:56:32;13.30;;;4.57;;
22268;SDS011;11303;50.772;19.670;2022-08-27T11:00:56;12.02;;;5.05;;
22268;SDS011;11303;50.772;19.670;2022-08-27T11:03:09;14.98;;;4.88;;
22268;SDS011;11303;50.772;19.670;2022-08-27T11:05:16;13.85;;;5.15;;
22268;SDS011;11303;50.772;19.670;2022-08-27T11:07:23;15.50;;;4.80;;
22268;SDS011;11303;50.772;19.670;2022-08-27T11:09:42;11.68;;;4.95;;
22268;SDS011;11303;50.772;19.670;2022-08-27T11:11:48;13.20;;;4.88;;
22268;SDS011;11303;50.772;19.670;2022-08-27T11:14:18;14.35;;;5.55;;
22268;SDS011;11303;50.772;19.670;2022-08-27T11:16:26;12.88;;;5.05;;
22268;SDS011;11303;50.772;19.670;2022-08-27T11:18:43;12.43;;;4.57;;
22268;SDS011;11303;50.772;19.670;2022-08-27T11:23:35;8.88;;;4.38;;
22268;SDS011;11303;50.772;19.670;2022-08-27T11:25:56;10.50;;;4.35;;
22268;SDS011;11303;50.772;19.670;2022-08-27T11:28:02;15.05;;;4.40;;
22268;SDS011;11303;50.772;19.670;2022-08-27T11:30:26;14.95;;;4.93;;
22268;SDS011;11303;50.772;19.670;2022-08-27T11:33:38;13.73;;;4.53;;
22268;SDS011;11303;50.772;19.670;2022-08-27T11:44:11;13.60;;;4.70;;
22268;SDS011;11303;50.772;19.670;2022-08-27T11:46:20;20.02;;;4.88;;
22268;SDS011;11303;50.772;19.670;2022-08-27T11:48:27;11.35;;;4.32;;
22268;SDS011;11303;50.772;19.670;2022-08-27T11:50:32;15.30;;;4.47;;
22268;SDS011;11303;50.772;19.670;2022-08-27T11:52:35;17.40;;;4.60;;
22268;SDS011;11303;50.772;19.670;2022-08-27T11:54:44;12.38;;;4.10;;
22268;SDS011;11303;50.772;19.670;2022-08-27T11:56:50;12.35;;;4.78;;
22268;SDS011;11303;50.772;19.670;2022-08-27T11:58:53;10.50;;;4.18;;
22268;SDS011;11303;50.772;19.670;2022-08-27T12:00:54;11.20;;;4.20;;
22268;SDS011;11303;50.772;19.670;2022-08-27T12:03:07;10.82;;;4.13;;
22268;SDS011;11303;50.772;19.670;2022-08-27T12:07:27;17.83;;;4.65;;
22268;SDS011;11303;50.772;19.670;2022-08-27T12:12:02;18.92;;;5.13;;
22268;SDS011;11303;50.772;19.670;2022-08-27T12:16:56;16.63;;;4.80;;
22268;SDS011;11303;50.772;19.670;2022-08-27T12:21:46;21.52;;;4.35;;
22268;SDS011;11303;50.772;19.670;2022-08-27T12:26:25;11.75;;;4.35;;
22268;SDS011;11303;50.772;19.670;2022-08-27T12:28:34;13.77;;;4.60;;
22268;SDS011;11303;50.772;19.670;2022-08-27T12:30:37;15.40;;;4.30;;
22268;SDS011;11303;50.772;19.670;2022-08-27T12:32:42;13.13;;;4.03;;
22268;SDS011;11303;50.772;19.670;2022-08-27T12:34:48;14.38;;;4.30;;
22268;SDS011;11303;50.772;19.670;2022-08-27T12:36:59;11.35;;;4.25;;
22268;SDS011;11303;50.772;19.670;2022-08-27T12:39:11;19.88;;;4.65;;
22268;SDS011;11303;50.772;19.670;2022-08-27T12:41:49;14.55;;;4.45;;
22268;SDS011;11303;50.772;19.670;2022-08-27T12:43:48;15.90;;;4.00;;
22268;SDS011;11303;50.772;19.670;2022-08-27T12:45:51;15.00;;;4.28;;
22268;SDS011;11303;50.772;19.670;2022-08-27T12:47:53;16.75;;;4.22;;
22268;SDS011;11303;50.772;19.670;2022-08-27T12:49:56;12.75;;;3.80;;
22268;SDS011;11303;50.772;19.670;2022-08-27T12:51:59;13.70;;;3.65;;
22268;SDS011;11303;50.772;19.670;2022-08-27T12:54:23;15.13;;;4.03;;
22268;SDS011;11303;50.772;19.670;2022-08-27T13:03:32;17.27;;;4.50;;
22268;SDS011;11303;50.772;19.670;2022-08-27T13:05:41;18.38;;;4.70;;
22268;SDS011;11303;50.772;19.670;2022-08-27T13:07:48;10.45;;;3.88;;
22268;SDS011;11303;50.772;19.670;2022-08-27T13:09:51;13.65;;;3.97;;
22268;SDS011;11303;50.772;19.670;2022-08-27T13:11:57;10.57;;;3.63;;
22268;SDS011;11303;50.772;19.670;2022-08-27T13:14:05;11.88;;;4.10;;
22268;SDS011;11303;50.772;19.670;2022-08-27T13:16:11;13.90;;;3.95;;
22268;SDS011;11303;50.772;19.670;2022-08-27T13:18:13;13.48;;;4.13;;
22268;SDS011;11303;50.772;19.670;2022-08-27T13:20:18;10.10;;;4.35;;